메인 페이지
METAR-TAF:

METAR-TAF

공항 :

Houma-Terrebonne Airport

Houma, 루이지애나, 미국

위도: 29-34N, 경도: 090-40W, 고도: 3m

현재 날씨관측

예보는 50분 전, 09:55시(UTC)에 발표되었습니다.
무풍
온도 16°C
습도 100%
기압 1017 hPa
시정: 8.0km
맑음
박무

METAR: KHUM 060955Z AUTO 00000KT 5SM BR CLR 16/16 A3002 RMK AO2 T01570155

시각: 05:45 (10:45 UTC)

예보

예보는 5 시간 25분 전, 05:20시(UTC)에 발표되었습니다.
예보 대상 시간: 06일 06시부터 07일 06시까지 (UTC)
여러 방향의 바람 3kt
시정: 10km
고도 10000ft 상공 구름 조금
고도 25000ft 상공 구름 보통
06일 1600시부터 (UTC)
동남동8kt
시정: 10km
고도 4000ft 상공 구름 조금
고도 15000ft 상공 흐림
07일 0100시부터 (UTC)
남남동6kt
시정: 10km
고도 4500ft 상공 구름 보통
고도 9000ft 상공 흐림
07일 0400시부터 (UTC)
남동5kt
시정: 10km
고도 2500ft 상공 흐림

TAF: KHUM 060520Z 0606/0706 VRB03KT P6SM FEW100 SCT250 FM061600 12008KT P6SM FEW040 OVC150 FM070100 15006KT P6SM SCT045 OVC090 FM070400 14005KT P6SM OVC025

4,000개 이상의 공항 관측 자료 및 예보 (METAR 및 TAF 보고).

지도상에서 검색 가능한 기상관측소가 노란 점과 빨간 점으로 표시되어 있습니다.

기상관측소 명을 보려면 표시 위로 마우스를 이동하세요.

날씨 관측과 예보를 보려면 클릭하세요.

지도 변경 : 확대하려면 엑스 표시가 있는 녹색 버튼, 축소하려면 빼기 표시가 있는 녹색 버튼, 다음 페이지의 지도를 보려면 녹색 화살표를 클릭하세요.


METAR-TAF: